sensor_id;sensor_type;location;lat;lon;timestamp;pressure;altitude;pressure_sealevel;temperature;humidity
30875;BME280;17581;43.222;27.924;2023-02-16T00:01:29;102214.44;;;4.65;54.49
30875;BME280;17581;43.222;27.924;2023-02-16T00:03:55;102209.09;;;4.65;54.59
30875;BME280;17581;43.222;27.924;2023-02-16T00:06:23;102201.19;;;4.64;54.99
30875;BME280;17581;43.222;27.924;2023-02-16T00:08:51;102200.00;;;4.72;54.46
30875;BME280;17581;43.222;27.924;2023-02-16T00:11:23;102204.34;;;4.75;54.60
30875;BME280;17581;43.222;27.924;2023-02-16T00:14:10;102203.09;;;4.59;55.25
30875;BME280;17581;43.222;27.924;2023-02-16T00:16:36;102208.81;;;4.47;55.96
30875;BME280;17581;43.222;27.924;2023-02-16T00:19:15;102203.84;;;4.34;57.18
30875;BME280;17581;43.222;27.924;2023-02-16T00:21:41;102207.19;;;4.43;57.33
30875;BME280;17581;43.222;27.924;2023-02-16T00:24:07;102203.47;;;4.47;57.19
30875;BME280;17581;43.222;27.924;2023-02-16T00:26:33;102197.50;;;4.40;57.83
30875;BME280;17581;43.222;27.924;2023-02-16T00:28:59;102195.66;;;4.42;57.91
30875;BME280;17581;43.222;27.924;2023-02-16T00:31:27;102193.09;;;4.37;58.14
30875;BME280;17581;43.222;27.924;2023-02-16T00:34:14;102202.72;;;4.43;58.48
30875;BME280;17581;43.222;27.924;2023-02-16T00:36:46;102199.81;;;4.51;58.30
30875;BME280;17581;43.222;27.924;2023-02-16T00:39:11;102210.28;;;4.57;57.80
30875;BME280;17581;43.222;27.924;2023-02-16T00:41:37;102195.34;;;4.51;57.67
30875;BME280;17581;43.222;27.924;2023-02-16T00:46:49;102199.81;;;4.51;57.50
30875;BME280;17581;43.222;27.924;2023-02-16T00:49:34;102190.91;;;4.52;57.47
30875;BME280;17581;43.222;27.924;2023-02-16T00:52:00;102182.25;;;4.44;57.50
30875;BME280;17581;43.222;27.924;2023-02-16T00:54:26;102188.19;;;4.53;57.30
30875;BME280;17581;43.222;27.924;2023-02-16T00:56:51;102182.91;;;4.52;56.94
30875;BME280;17581;43.222;27.924;2023-02-16T00:59:19;102178.28;;;4.57;56.91
30875;BME280;17581;43.222;27.924;2023-02-16T01:01:47;102165.16;;;4.51;56.59
30875;BME280;17581;43.222;27.924;2023-02-16T01:04:19;102184.69;;;4.51;56.45
30875;BME280;17581;43.222;27.924;2023-02-16T01:06:45;102164.84;;;4.33;56.08
30875;BME280;17581;43.222;27.924;2023-02-16T01:09:29;102175.13;;;4.46;56.20
30875;BME280;17581;43.222;27.924;2023-02-16T01:12:15;102153.91;;;4.43;56.06
30875;BME280;17581;43.222;27.924;2023-02-16T01:14:41;102175.22;;;4.43;55.94
30875;BME280;17581;43.222;27.924;2023-02-16T01:17:10;102180.53;;;4.43;56.03
30875;BME280;17581;43.222;27.924;2023-02-16T01:19:35;102175.81;;;4.51;56.27
30875;BME280;17581;43.222;27.924;2023-02-16T01:22:01;102171.31;;;4.53;56.10
30875;BME280;17581;43.222;27.924;2023-02-16T01:24:26;102173.31;;;4.46;56.14
30875;BME280;17581;43.222;27.924;2023-02-16T01:26:51;102172.28;;;4.50;55.86
30875;BME280;17581;43.222;27.924;2023-02-16T01:29:19;102180.19;;;4.53;55.75
30875;BME280;17581;43.222;27.924;2023-02-16T01:31:44;102166.75;;;4.56;56.00
30875;BME280;17581;43.222;27.924;2023-02-16T01:34:11;102166.72;;;4.58;55.94
30875;BME280;17581;43.222;27.924;2023-02-16T01:36:39;102165.97;;;4.53;55.70
30875;BME280;17581;43.222;27.924;2023-02-16T01:39:06;102165.16;;;4.51;55.74
30875;BME280;17581;43.222;27.924;2023-02-16T01:44:29;102159.91;;;4.49;56.03
30875;BME280;17581;43.222;27.924;2023-02-16T01:49:37;102165.16;;;4.51;55.69
30875;BME280;17581;43.222;27.924;2023-02-16T01:52:35;102172.97;;;4.57;55.83
30875;BME280;17581;43.222;27.924;2023-02-16T01:55:23;102174.16;;;4.47;55.84
30875;BME280;17581;43.222;27.924;2023-02-16T01:57:54;102172.88;;;4.32;55.65
30875;BME280;17581;43.222;27.924;2023-02-16T02:02:55;102175.31;;;4.39;56.12
30875;BME280;17581;43.222;27.924;2023-02-16T02:05:47;102164.75;;;4.36;55.90
30875;BME280;17581;43.222;27.924;2023-02-16T02:08:41;102175.41;;;4.36;56.15
30875;BME280;17581;43.222;27.924;2023-02-16T02:14:21;102175.97;;;4.18;56.39
30875;BME280;17581;43.222;27.924;2023-02-16T02:17:01;102172.63;;;4.12;56.46
30875;BME280;17581;43.222;27.924;2023-02-16T02:19:28;102174.31;;;4.14;56.24
30875;BME280;17581;43.222;27.924;2023-02-16T02:25:46;102176.38;;;4.05;56.81
30875;BME280;17581;43.222;27.924;2023-02-16T02:33:41;102165.91;;;3.99;56.64
30875;BME280;17581;43.222;27.924;2023-02-16T02:44:20;102169.91;;;3.84;57.17
30875;BME280;17581;43.222;27.924;2023-02-16T02:46:45;102172.28;;;3.93;57.11
30875;BME280;17581;43.222;27.924;2023-02-16T02:49:11;102167.69;;;3.98;56.95
30875;BME280;17581;43.222;27.924;2023-02-16T02:51:36;102166.16;;;3.91;56.61
30875;BME280;17581;43.222;27.924;2023-02-16T02:54:09;102150.44;;;3.82;56.79
30875;BME280;17581;43.222;27.924;2023-02-16T03:03:10;102162.44;;;3.95;56.83
30875;BME280;17581;43.222;27.924;2023-02-16T03:05:40;102153.84;;;3.87;56.91
30875;BME280;17581;43.222;27.924;2023-02-16T03:08:10;102166.16;;;3.90;56.72
30875;BME280;17581;43.222;27.924;2023-02-16T03:10:41;102159.75;;;3.97;56.28
30875;BME280;17581;43.222;27.924;2023-02-16T03:13:30;102165.19;;;3.94;56.55
30875;BME280;17581;43.222;27.924;2023-02-16T03:16:00;102151.63;;;4.01;56.51
30875;BME280;17581;43.222;27.924;2023-02-16T03:18:29;102164.13;;;3.99;56.40
30875;BME280;17581;43.222;27.924;2023-02-16T03:21:14;102162.38;;;3.98;56.39
30875;BME280;17581;43.222;27.924;2023-02-16T03:24:00;102168.63;;;3.97;56.23
30875;BME280;17581;43.222;27.924;2023-02-16T03:26:47;102176.88;;;3.88;55.97
30875;BME280;17581;43.222;27.924;2023-02-16T03:29:32;102178.97;;;3.77;56.69
30875;BME280;17581;43.222;27.924;2023-02-16T03:32:00;102178.88;;;3.80;56.53
30875;BME280;17581;43.222;27.924;2023-02-16T03:34:26;102187.78;;;3.79;56.70
30875;BME280;17581;43.222;27.924;2023-02-16T03:36:56;102179.75;;;3.80;56.63
30875;BME280;17581;43.222;27.924;2023-02-16T03:39:26;102175.31;;;3.81;56.54
30875;BME280;17581;43.222;27.924;2023-02-16T03:41:54;102177.06;;;3.82;56.64
30875;BME280;17581;43.222;27.924;2023-02-16T03:44:20;102176.34;;;3.75;56.53
30875;BME280;17581;43.222;27.924;2023-02-16T03:46:46;102174.50;;;3.77;56.66
30875;BME280;17581;43.222;27.924;2023-02-16T03:49:14;102172.66;;;3.79;56.53
30875;BME280;17581;43.222;27.924;2023-02-16T03:51:40;102174.50;;;3.77;56.78
30875;BME280;17581;43.222;27.924;2023-02-16T03:54:06;102180.75;;;3.76;56.76
30875;BME280;17581;43.222;27.924;2023-02-16T03:56:31;102177.41;;;3.70;56.75
30875;BME280;17581;43.222;27.924;2023-02-16T03:58:57;102179.91;;;3.74;56.92
30875;BME280;17581;43.222;27.924;2023-02-16T04:01:22;102187.09;;;3.72;56.93
30875;BME280;17581;43.222;27.924;2023-02-16T04:03:48;102189.59;;;3.77;56.62
30875;BME280;17581;43.222;27.924;2023-02-16T04:06:13;102179.13;;;3.71;56.44
30875;BME280;17581;43.222;27.924;2023-02-16T04:08:39;102187.00;;;3.75;56.59
30875;BME280;17581;43.222;27.924;2023-02-16T04:11:04;102193.19;;;3.76;56.63
30875;BME280;17581;43.222;27.924;2023-02-16T04:13:49;102180.97;;;3.69;56.54
30875;BME280;17581;43.222;27.924;2023-02-16T04:16:14;102186.47;;;3.63;56.58
30875;BME280;17581;43.222;27.924;2023-02-16T04:18:39;102181.00;;;3.67;56.44
30875;BME280;17581;43.222;27.924;2023-02-16T04:21:05;102196.94;;;3.69;56.45
30875;BME280;17581;43.222;27.924;2023-02-16T04:23:30;102196.94;;;3.69;56.35
30875;BME280;17581;43.222;27.924;2023-02-16T04:25:56;102182.81;;;3.67;56.74
30875;BME280;17581;43.222;27.924;2023-02-16T04:28:21;102187.28;;;3.65;56.38
30875;BME280;17581;43.222;27.924;2023-02-16T04:30:46;102185.75;;;3.56;56.43
30875;BME280;17581;43.222;27.924;2023-02-16T04:33:12;102189.50;;;3.49;56.57
30875;BME280;17581;43.222;27.924;2023-02-16T04:35:37;102187.16;;;3.39;56.93
30875;BME280;17581;43.222;27.924;2023-02-16T04:38:03;102192.22;;;3.48;56.80
30875;BME280;17581;43.222;27.924;2023-02-16T04:40:28;102188.69;;;3.46;56.94
30875;BME280;17581;43.222;27.924;2023-02-16T04:42:53;102198.56;;;3.42;56.83
30875;BME280;17581;43.222;27.924;2023-02-16T04:45:19;102201.34;;;3.38;56.93
30875;BME280;17581;43.222;27.924;2023-02-16T04:47:45;102199.59;;;3.37;57.30
30875;BME280;17581;43.222;27.924;2023-02-16T04:50:10;102205.88;;;3.34;57.20
30875;BME280;17581;43.222;27.924;2023-02-16T04:52:36;102200.63;;;3.31;57.14
30875;BME280;17581;43.222;27.924;2023-02-16T04:55:03;102198.91;;;3.30;57.17
30875;BME280;17581;43.222;27.924;2023-02-16T04:57:29;102200.47;;;3.37;57.38
30875;BME280;17581;43.222;27.924;2023-02-16T04:59:55;102203.03;;;3.42;57.28
30875;BME280;17581;43.222;27.924;2023-02-16T05:02:20;102199.66;;;3.35;57.39
30875;BME280;17581;43.222;27.924;2023-02-16T05:04:46;102207.56;;;3.37;57.53
30875;BME280;17581;43.222;27.924;2023-02-16T05:07:11;102200.53;;;3.36;57.75
30875;BME280;17581;43.222;27.924;2023-02-16T05:09:36;102210.19;;;3.38;57.35
30875;BME280;17581;43.222;27.924;2023-02-16T05:12:02;102204.91;;;3.37;57.54
30875;BME280;17581;43.222;27.924;2023-02-16T05:14:46;102215.50;;;3.38;58.06
30875;BME280;17581;43.222;27.924;2023-02-16T05:17:17;102199.66;;;3.35;58.00
30875;BME280;17581;43.222;27.924;2023-02-16T05:19:45;102173.47;;;3.18;58.33
30875;BME280;17581;43.222;27.924;2023-02-16T05:22:11;102224.94;;;3.50;58.55
30875;BME280;17581;43.222;27.924;2023-02-16T05:24:37;102226.53;;;3.57;58.42
30875;BME280;17581;43.222;27.924;2023-02-16T05:27:04;102227.28;;;3.62;58.58
30875;BME280;17581;43.222;27.924;2023-02-16T05:29:31;102213.31;;;3.54;58.47
30875;BME280;17581;43.222;27.924;2023-02-16T05:31:56;102235.06;;;3.69;58.38
30875;BME280;17581;43.222;27.924;2023-02-16T05:34:22;102240.13;;;3.78;58.25
30875;BME280;17581;43.222;27.924;2023-02-16T05:36:48;102233.06;;;3.77;58.31
30875;BME280;17581;43.222;27.924;2023-02-16T05:39:13;102242.66;;;3.83;58.02
30875;BME280;17581;43.222;27.924;2023-02-16T05:41:39;102243.53;;;3.83;57.63
30875;BME280;17581;43.222;27.924;2023-02-16T05:44:06;102250.59;;;3.84;57.67
30875;BME280;17581;43.222;27.924;2023-02-16T05:46:34;102237.16;;;3.89;58.25
30875;BME280;17581;43.222;27.924;2023-02-16T05:49:01;102241.56;;;3.90;57.94
30875;BME280;17581;43.222;27.924;2023-02-16T05:51:26;102233.34;;;3.99;58.25
30875;BME280;17581;43.222;27.924;2023-02-16T05:53:52;102241.25;;;4.01;57.82
30875;BME280;17581;43.222;27.924;2023-02-16T05:56:19;102245.72;;;4.00;58.21
30875;BME280;17581;43.222;27.924;2023-02-16T05:58:44;102248.34;;;4.02;57.91
30875;BME280;17581;43.222;27.924;2023-02-16T06:01:10;102241.97;;;4.07;57.91
30875;BME280;17581;43.222;27.924;2023-02-16T06:03:36;102240.91;;;4.13;57.51
30875;BME280;17581;43.222;27.924;2023-02-16T06:06:02;102246.94;;;4.19;57.68
30875;BME280;17581;43.222;27.924;2023-02-16T06:08:29;102242.13;;;4.32;57.32
30875;BME280;17581;43.222;27.924;2023-02-16T06:10:55;102244.66;;;4.36;57.32
30875;BME280;17581;43.222;27.924;2023-02-16T06:13:21;102248.84;;;4.44;56.85
30875;BME280;17581;43.222;27.924;2023-02-16T06:15:47;102244.19;;;4.52;57.55
30875;BME280;17581;43.222;27.924;2023-02-16T06:18:14;102252.81;;;4.60;57.38
30875;BME280;17581;43.222;27.924;2023-02-16T06:20:40;102245.72;;;4.59;57.38
30875;BME280;17581;43.222;27.924;2023-02-16T06:23:07;102227.81;;;4.64;57.87
30875;BME280;17581;43.222;27.924;2023-02-16T06:25:34;102237.94;;;4.80;57.79
30875;BME280;17581;43.222;27.924;2023-02-16T06:28:00;102218.44;;;4.80;57.57
30875;BME280;17581;43.222;27.924;2023-02-16T06:30:26;102243.53;;;4.99;57.74
30875;BME280;17581;43.222;27.924;2023-02-16T06:32:51;102245.00;;;5.09;57.53
30875;BME280;17581;43.222;27.924;2023-02-16T06:35:17;102250.03;;;5.18;57.32
30875;BME280;17581;43.222;27.924;2023-02-16T06:37:42;102243.47;;;5.28;57.08
30875;BME280;17581;43.222;27.924;2023-02-16T06:40:09;102241.38;;;5.38;57.24
30875;BME280;17581;43.222;27.924;2023-02-16T06:42:36;102236.03;;;5.38;57.10
30875;BME280;17581;43.222;27.924;2023-02-16T06:45:02;102228.44;;;5.50;57.28
30875;BME280;17581;43.222;27.924;2023-02-16T06:47:28;102228.84;;;5.65;56.72
30875;BME280;17581;43.222;27.924;2023-02-16T06:49:54;102234.19;;;5.65;56.76
30875;BME280;17581;43.222;27.924;2023-02-16T06:52:20;102228.78;;;5.66;56.65
30875;BME280;17581;43.222;27.924;2023-02-16T06:54:45;102240.97;;;5.75;56.65
30875;BME280;17581;43.222;27.924;2023-02-16T06:57:10;102241.97;;;5.71;56.70
30875;BME280;17581;43.222;27.924;2023-02-16T06:59:36;102233.25;;;5.66;56.74
30875;BME280;17581;43.222;27.924;2023-02-16T07:02:01;102243.75;;;5.72;56.36
30875;BME280;17581;43.222;27.924;2023-02-16T07:04:27;102242.53;;;5.80;55.97
30875;BME280;17581;43.222;27.924;2023-02-16T07:06:53;102230.78;;;5.84;55.70
30875;BME280;17581;43.222;27.924;2023-02-16T07:09:18;102236.13;;;5.86;54.94
30875;BME280;17581;43.222;27.924;2023-02-16T07:11:44;102228.81;;;5.91;55.38
30875;BME280;17581;43.222;27.924;2023-02-16T07:14:09;102227.81;;;5.93;55.20
30875;BME280;17581;43.222;27.924;2023-02-16T07:16:35;102232.31;;;5.93;55.29
30875;BME280;17581;43.222;27.924;2023-02-16T07:19:00;102232.94;;;5.99;55.38
30875;BME280;17581;43.222;27.924;2023-02-16T07:21:26;102220.56;;;5.97;55.33
30875;BME280;17581;43.222;27.924;2023-02-16T07:23:51;102210.75;;;5.97;55.62
30875;BME280;17581;43.222;27.924;2023-02-16T07:26:17;102218.16;;;6.14;55.48
30875;BME280;17581;43.222;27.924;2023-02-16T07:28:42;102208.50;;;6.10;55.69
30875;BME280;17581;43.222;27.924;2023-02-16T07:31:13;102207.88;;;6.27;55.51
30875;BME280;17581;43.222;27.924;2023-02-16T07:33:39;102212.91;;;6.34;55.83
30875;BME280;17581;43.222;27.924;2023-02-16T07:36:12;102203.88;;;6.38;55.47
30875;BME280;17581;43.222;27.924;2023-02-16T07:38:39;102210.56;;;6.48;55.30
30875;BME280;17581;43.222;27.924;2023-02-16T07:41:08;102205.69;;;6.60;55.40
30875;BME280;17581;43.222;27.924;2023-02-16T07:43:34;102195.44;;;6.71;55.05
30875;BME280;17581;43.222;27.924;2023-02-16T07:46:00;102191.44;;;6.81;55.05
30875;BME280;17581;43.222;27.924;2023-02-16T07:48:25;102191.50;;;7.01;54.36
30875;BME280;17581;43.222;27.924;2023-02-16T07:50:51;102193.59;;;7.15;54.35
30875;BME280;17581;43.222;27.924;2023-02-16T07:53:17;102187.59;;;7.30;54.30
30875;BME280;17581;43.222;27.924;2023-02-16T07:55:44;102192.34;;;7.43;53.20
30875;BME280;17581;43.222;27.924;2023-02-16T07:58:09;102190.47;;;7.45;53.39
30875;BME280;17581;43.222;27.924;2023-02-16T08:00:35;102184.25;;;7.45;53.94
30875;BME280;17581;43.222;27.924;2023-02-16T08:03:01;102181.22;;;7.52;53.73
30875;BME280;17581;43.222;27.924;2023-02-16T08:05:27;102172.00;;;7.59;53.39
30875;BME280;17581;43.222;27.924;2023-02-16T08:07:53;102193.13;;;7.65;53.09
30875;BME280;17581;43.222;27.924;2023-02-16T08:10:18;102181.75;;;7.81;52.88
30875;BME280;17581;43.222;27.924;2023-02-16T08:12:45;102161.88;;;7.66;52.47
30875;BME280;17581;43.222;27.924;2023-02-16T08:15:10;102171.16;;;7.78;52.36
30875;BME280;17581;43.222;27.924;2023-02-16T08:17:36;102181.31;;;7.90;52.02
30875;BME280;17581;43.222;27.924;2023-02-16T08:20:04;102188.56;;;7.88;50.96
30875;BME280;17581;43.222;27.924;2023-02-16T08:22:30;102182.94;;;7.94;50.79
30875;BME280;17581;43.222;27.924;2023-02-16T08:24:55;102192.34;;;8.02;51.22
30875;BME280;17581;43.222;27.924;2023-02-16T08:27:21;102182.22;;;8.09;51.32
30875;BME280;17581;43.222;27.924;2023-02-16T08:29:46;102183.88;;;8.11;51.89
30875;BME280;17581;43.222;27.924;2023-02-16T08:32:12;102183.25;;;8.25;51.85
30875;BME280;17581;43.222;27.924;2023-02-16T08:34:40;102175.47;;;8.39;52.05
30875;BME280;17581;43.222;27.924;2023-02-16T08:37:05;102177.50;;;8.34;50.80
30875;BME280;17581;43.222;27.924;2023-02-16T08:39:31;102187.94;;;8.40;51.31
30875;BME280;17581;43.222;27.924;2023-02-16T08:41:59;102180.81;;;8.39;51.38
30875;BME280;17581;43.222;27.924;2023-02-16T08:44:26;102187.97;;;8.57;51.06
30875;BME280;17581;43.222;27.924;2023-02-16T08:46:54;102174.28;;;8.63;50.85
30875;BME280;17581;43.222;27.924;2023-02-16T08:49:22;102175.56;;;8.73;50.38
30875;BME280;17581;43.222;27.924;2023-02-16T08:51:53;102180.53;;;8.81;50.18
30875;BME280;17581;43.222;27.924;2023-02-16T08:54:22;102173.63;;;8.94;49.56
30875;BME280;17581;43.222;27.924;2023-02-16T08:56:49;102171.34;;;9.04;49.48
30875;BME280;17581;43.222;27.924;2023-02-16T08:59:16;102175.00;;;9.20;49.46
30875;BME280;17581;43.222;27.924;2023-02-16T09:01:42;102176.91;;;9.35;49.32
30875;BME280;17581;43.222;27.924;2023-02-16T09:04:08;102164.03;;;9.42;49.22
30875;BME280;17581;43.222;27.924;2023-02-16T09:06:38;102171.69;;;9.49;48.95
30875;BME280;17581;43.222;27.924;2023-02-16T09:09:04;102166.56;;;9.45;48.94
30875;BME280;17581;43.222;27.924;2023-02-16T09:11:30;102162.69;;;9.50;49.14
30875;BME280;17581;43.222;27.924;2023-02-16T09:13:56;102156.72;;;9.61;48.87
30875;BME280;17581;43.222;27.924;2023-02-16T09:16:22;102158.63;;;9.59;48.67
30875;BME280;17581;43.222;27.924;2023-02-16T09:18:50;102163.97;;;9.76;48.60
30875;BME280;17581;43.222;27.924;2023-02-16T09:21:21;102160.13;;;9.97;47.99
30875;BME280;17581;43.222;27.924;2023-02-16T09:23:48;102147.22;;;10.04;47.92
30875;BME280;17581;43.222;27.924;2023-02-16T09:26:15;102147.38;;;10.18;47.29
30875;BME280;17581;43.222;27.924;2023-02-16T09:28:42;102157.44;;;10.30;46.11
30875;BME280;17581;43.222;27.924;2023-02-16T09:31:14;102161.50;;;10.21;46.51
30875;BME280;17581;43.222;27.924;2023-02-16T09:33:41;102154.94;;;10.27;45.82
30875;BME280;17581;43.222;27.924;2023-02-16T09:36:08;102142.69;;;10.37;45.33
30875;BME280;17581;43.222;27.924;2023-02-16T09:38:36;102149.41;;;10.46;44.88
30875;BME280;17581;43.222;27.924;2023-02-16T09:46:42;102134.44;;;10.71;42.20
30875;BME280;17581;43.222;27.924;2023-02-16T09:49:35;102128.31;;;10.83;41.20
30875;BME280;17581;43.222;27.924;2023-02-16T09:54:48;102121.16;;;10.68;40.73
30875;BME280;17581;43.222;27.924;2023-02-16T10:02:58;102111.63;;;10.92;39.84
30875;BME280;17581;43.222;27.924;2023-02-16T10:05:44;102107.59;;;11.15;39.47
30875;BME280;17581;43.222;27.924;2023-02-16T10:08:24;102104.22;;;11.26;39.20
30875;BME280;17581;43.222;27.924;2023-02-16T10:13:41;102098.31;;;11.49;38.94
30875;BME280;17581;43.222;27.924;2023-02-16T10:16:15;102092.91;;;11.63;38.88
30875;BME280;17581;43.222;27.924;2023-02-16T10:18:47;102088.06;;;11.70;38.83
30875;BME280;17581;43.222;27.924;2023-02-16T10:21:18;102095.53;;;11.93;38.43
30875;BME280;17581;43.222;27.924;2023-02-16T10:24:02;102091.63;;;11.98;37.71
30875;BME280;17581;43.222;27.924;2023-02-16T10:26:35;102082.94;;;12.08;37.78
30875;BME280;17581;43.222;27.924;2023-02-16T10:29:06;102086.59;;;12.07;37.45
30875;BME280;17581;43.222;27.924;2023-02-16T10:31:39;102092.25;;;12.16;37.79
30875;BME280;17581;43.222;27.924;2023-02-16T10:40:21;102079.31;;;12.62;37.67
30875;BME280;17581;43.222;27.924;2023-02-16T10:43:11;102080.31;;;12.74;37.50
30875;BME280;17581;43.222;27.924;2023-02-16T10:45:51;102076.84;;;12.84;37.03
30875;BME280;17581;43.222;27.924;2023-02-16T10:48:21;102069.00;;;12.94;36.79
30875;BME280;17581;43.222;27.924;2023-02-16T10:50:55;102084.75;;;12.87;36.67
30875;BME280;17581;43.222;27.924;2023-02-16T10:53:42;102069.13;;;12.92;36.88
30875;BME280;17581;43.222;27.924;2023-02-16T10:56:20;102064.25;;;12.97;36.51
30875;BME280;17581;43.222;27.924;2023-02-16T10:58:48;102077.25;;;13.05;36.69
30875;BME280;17581;43.222;27.924;2023-02-16T11:01:18;102063.25;;;13.13;36.44
30875;BME280;17581;43.222;27.924;2023-02-16T11:03:47;102058.44;;;13.03;35.69
30875;BME280;17581;43.222;27.924;2023-02-16T11:06:21;102054.66;;;13.06;35.51
30875;BME280;17581;43.222;27.924;2023-02-16T11:08:49;102061.94;;;13.18;39.19
30875;BME280;17581;43.222;27.924;2023-02-16T11:11:18;102068.16;;;12.93;43.51
30875;BME280;17581;43.222;27.924;2023-02-16T11:13:48;102060.34;;;12.89;44.15
30875;BME280;17581;43.222;27.924;2023-02-16T11:16:22;102059.78;;;12.71;43.47
30875;BME280;17581;43.222;27.924;2023-02-16T11:19:17;102055.75;;;12.64;42.73
30875;BME280;17581;43.222;27.924;2023-02-16T11:21:47;102052.19;;;12.37;45.03
30875;BME280;17581;43.222;27.924;2023-02-16T11:24:43;102055.72;;;12.25;44.89
30875;BME280;17581;43.222;27.924;2023-02-16T11:29:40;102052.28;;;12.35;42.21
30875;BME280;17581;43.222;27.924;2023-02-16T11:32:08;102051.84;;;12.29;41.97
30875;BME280;17581;43.222;27.924;2023-02-16T11:34:36;102049.22;;;12.00;42.56
30875;BME280;17581;43.222;27.924;2023-02-16T11:37:09;102043.16;;;11.97;41.77
30875;BME280;17581;43.222;27.924;2023-02-16T11:39:39;102044.03;;;11.97;39.33
30875;BME280;17581;43.222;27.924;2023-02-16T11:42:08;102038.84;;;11.94;39.04
30875;BME280;17581;43.222;27.924;2023-02-16T11:47:03;102050.97;;;11.87;38.30
30875;BME280;17581;43.222;27.924;2023-02-16T11:49:38;102043.28;;;11.95;37.91
30875;BME280;17581;43.222;27.924;2023-02-16T11:54:51;102039.97;;;11.62;41.06
30875;BME280;17581;43.222;27.924;2023-02-16T11:57:34;102044.03;;;11.83;40.88
30875;BME280;17581;43.222;27.924;2023-02-16T12:00:09;102040.19;;;12.02;41.39
30875;BME280;17581;43.222;27.924;2023-02-16T12:03:14;102046.41;;;12.02;45.21
30875;BME280;17581;43.222;27.924;2023-02-16T12:08:26;102041.53;;;11.66;52.77
30875;BME280;17581;43.222;27.924;2023-02-16T12:13:47;102035.13;;;11.11;57.05
30875;BME280;17581;43.222;27.924;2023-02-16T12:27:03;102025.91;;;10.71;58.53
30875;BME280;17581;43.222;27.924;2023-02-16T12:35:25;102034.16;;;10.38;58.72
30875;BME280;17581;43.222;27.924;2023-02-16T12:44:04;102024.38;;;10.06;61.25
30875;BME280;17581;43.222;27.924;2023-02-16T12:46:41;102020.72;;;10.07;60.72
30875;BME280;17581;43.222;27.924;2023-02-16T12:49:27;102032.09;;;10.12;60.24
30875;BME280;17581;43.222;27.924;2023-02-16T12:52:15;102019.34;;;10.15;59.70
30875;BME280;17581;43.222;27.924;2023-02-16T12:54:48;102014.66;;;10.19;59.20
30875;BME280;17581;43.222;27.924;2023-02-16T12:57:19;102027.94;;;10.22;58.88
30875;BME280;17581;43.222;27.924;2023-02-16T12:59:56;102026.00;;;10.40;58.32
30875;BME280;17581;43.222;27.924;2023-02-16T13:02:31;102008.69;;;10.29;57.66
30875;BME280;17581;43.222;27.924;2023-02-16T13:05:08;102011.28;;;10.15;57.43
30875;BME280;17581;43.222;27.924;2023-02-16T13:07:38;102014.75;;;10.17;57.61
30875;BME280;17581;43.222;27.924;2023-02-16T13:12:42;102003.28;;;9.82;57.95
30875;BME280;17581;43.222;27.924;2023-02-16T13:15:19;102003.97;;;10.02;57.69
30875;BME280;17581;43.222;27.924;2023-02-16T13:18:01;101990.13;;;9.94;57.14
30875;BME280;17581;43.222;27.924;2023-02-16T13:20:30;101997.94;;;10.14;55.87
30875;BME280;17581;43.222;27.924;2023-02-16T13:26:19;102002.81;;;10.37;54.99
30875;BME280;17581;43.222;27.924;2023-02-16T13:31:42;101985.69;;;10.24;52.80
30875;BME280;17581;43.222;27.924;2023-02-16T13:45:44;101987.59;;;10.22;52.02
30875;BME280;17581;43.222;27.924;2023-02-16T13:48:21;101994.88;;;10.20;51.91
30875;BME280;17581;43.222;27.924;2023-02-16T13:51:00;102000.69;;;10.28;53.70
30875;BME280;17581;43.222;27.924;2023-02-16T13:53:38;101997.75;;;10.17;53.89
30875;BME280;17581;43.222;27.924;2023-02-16T13:56:14;101994.44;;;10.12;54.55
30875;BME280;17581;43.222;27.924;2023-02-16T13:58:41;101991.09;;;10.24;53.93
30875;BME280;17581;43.222;27.924;2023-02-16T14:01:40;101994.88;;;10.20;53.74
30875;BME280;17581;43.222;27.924;2023-02-16T14:12:03;101975.53;;;9.98;52.19
30875;BME280;17581;43.222;27.924;2023-02-16T14:19:45;101961.34;;;9.96;52.90
30875;BME280;17581;43.222;27.924;2023-02-16T14:22:17;101962.97;;;9.98;52.98
30875;BME280;17581;43.222;27.924;2023-02-16T14:24:52;101968.94;;;10.03;53.43
30875;BME280;17581;43.222;27.924;2023-02-16T14:27:41;101970.44;;;10.09;53.46
30875;BME280;17581;43.222;27.924;2023-02-16T14:32:38;101964.78;;;9.98;53.02
30875;BME280;17581;43.222;27.924;2023-02-16T14:35:18;101969.47;;;9.94;52.93
30875;BME280;17581;43.222;27.924;2023-02-16T14:40:20;101961.41;;;9.78;53.41
30875;BME280;17581;43.222;27.924;2023-02-16T14:42:57;101953.19;;;9.81;53.50
30875;BME280;17581;43.222;27.924;2023-02-16T14:56:57;101953.88;;;9.69;54.67
30875;BME280;17581;43.222;27.924;2023-02-16T14:59:30;101958.22;;;9.72;54.97
30875;BME280;17581;43.222;27.924;2023-02-16T15:01:57;101957.44;;;9.70;54.91
30875;BME280;17581;43.222;27.924;2023-02-16T15:04:28;101950.06;;;9.73;55.24
30875;BME280;17581;43.222;27.924;2023-02-16T15:06:55;101957.00;;;9.77;54.78
30875;BME280;17581;43.222;27.924;2023-02-16T15:09:32;101947.13;;;9.78;54.55
30875;BME280;17581;43.222;27.924;2023-02-16T15:12:02;101955.03;;;9.65;55.20
30875;BME280;17581;43.222;27.924;2023-02-16T15:14:54;101953.38;;;9.63;55.59
30875;BME280;17581;43.222;27.924;2023-02-16T15:17:33;101957.34;;;9.56;55.65
30875;BME280;17581;43.222;27.924;2023-02-16T15:20:36;101955.53;;;9.41;56.32
30875;BME280;17581;43.222;27.924;2023-02-16T15:23:17;101945.81;;;9.38;56.07
30875;BME280;17581;43.222;27.924;2023-02-16T15:28:21;101954.88;;;9.20;57.69
30875;BME280;17581;43.222;27.924;2023-02-16T15:30:52;101956.59;;;9.21;57.62
30875;BME280;17581;43.222;27.924;2023-02-16T15:35:52;101948.38;;;9.24;58.22